sensor_id;sensor_type;location;lat;lon;timestamp;P1;durP1;ratioP1;P2;durP2;ratioP2
50585;SDS011;36542;51.700;8.846;2024-03-23T00:53:31;15.17;;;6.17;;
50585;SDS011;36542;51.700;8.846;2024-03-23T00:55:58;19.03;;;6.50;;
50585;SDS011;36542;51.700;8.846;2024-03-23T00:58:24;14.10;;;6.13;;
50585;SDS011;36542;51.700;8.846;2024-03-23T01:00:50;17.43;;;6.13;;
50585;SDS011;36542;51.700;8.846;2024-03-23T01:03:15;17.47;;;6.63;;
50585;SDS011;36542;51.700;8.846;2024-03-23T01:05:41;13.10;;;6.53;;
50585;SDS011;36542;51.700;8.846;2024-03-23T01:08:07;22.80;;;6.67;;
50585;SDS011;36542;51.700;8.846;2024-03-23T01:10:32;17.83;;;7.33;;
50585;SDS011;36542;51.700;8.846;2024-03-23T01:12:58;21.53;;;8.27;;
50585;SDS011;36542;51.700;8.846;2024-03-23T01:15:24;15.33;;;7.60;;
50585;SDS011;36542;51.700;8.846;2024-03-23T01:17:49;19.67;;;9.00;;
50585;SDS011;36542;51.700;8.846;2024-03-23T01:20:15;18.03;;;7.83;;
50585;SDS011;36542;51.700;8.846;2024-03-23T01:22:41;24.53;;;8.30;;
50585;SDS011;36542;51.700;8.846;2024-03-23T01:25:07;21.53;;;8.20;;
50585;SDS011;36542;51.700;8.846;2024-03-23T01:27:32;23.80;;;8.80;;
50585;SDS011;36542;51.700;8.846;2024-03-23T01:29:59;27.20;;;8.97;;
50585;SDS011;36542;51.700;8.846;2024-03-23T01:32:24;22.43;;;9.40;;
50585;SDS011;36542;51.700;8.846;2024-03-23T01:34:50;20.77;;;8.63;;
50585;SDS011;36542;51.700;8.846;2024-03-23T01:37:16;24.20;;;9.27;;
50585;SDS011;36542;51.700;8.846;2024-03-23T01:39:41;24.30;;;8.27;;
50585;SDS011;36542;51.700;8.846;2024-03-23T01:42:07;18.43;;;7.50;;
50585;SDS011;36542;51.700;8.846;2024-03-23T01:44:33;18.57;;;7.37;;
50585;SDS011;36542;51.700;8.846;2024-03-23T01:46:58;17.27;;;7.27;;
50585;SDS011;36542;51.700;8.846;2024-03-23T01:49:24;19.07;;;7.10;;
50585;SDS011;36542;51.700;8.846;2024-03-23T01:51:50;25.73;;;7.93;;
50585;SDS011;36542;51.700;8.846;2024-03-23T01:54:15;24.00;;;8.33;;
50585;SDS011;36542;51.700;8.846;2024-03-23T01:56:41;21.80;;;7.60;;
50585;SDS011;36542;51.700;8.846;2024-03-23T01:59:07;20.47;;;7.73;;
50585;SDS011;36542;51.700;8.846;2024-03-23T02:01:34;30.23;;;7.67;;
50585;SDS011;36542;51.700;8.846;2024-03-23T02:04:03;23.10;;;7.47;;
50585;SDS011;36542;51.700;8.846;2024-03-23T02:06:29;15.80;;;7.50;;
50585;SDS011;36542;51.700;8.846;2024-03-23T02:08:55;22.10;;;7.50;;
50585;SDS011;36542;51.700;8.846;2024-03-23T02:11:20;26.53;;;7.07;;
50585;SDS011;36542;51.700;8.846;2024-03-23T02:13:46;18.30;;;7.47;;
50585;SDS011;36542;51.700;8.846;2024-03-23T02:16:11;21.77;;;7.90;;
50585;SDS011;36542;51.700;8.846;2024-03-23T02:18:38;25.07;;;9.10;;
50585;SDS011;36542;51.700;8.846;2024-03-23T02:21:04;31.13;;;10.73;;
50585;SDS011;36542;51.700;8.846;2024-03-23T02:23:29;33.40;;;10.30;;
50585;SDS011;36542;51.700;8.846;2024-03-23T02:25:55;30.27;;;10.37;;
50585;SDS011;36542;51.700;8.846;2024-03-23T02:28:21;30.73;;;11.60;;
50585;SDS011;36542;51.700;8.846;2024-03-23T02:30:50;32.50;;;10.83;;
50585;SDS011;36542;51.700;8.846;2024-03-23T02:33:17;34.37;;;10.37;;
50585;SDS011;36542;51.700;8.846;2024-03-23T02:35:46;30.37;;;11.83;;
50585;SDS011;36542;51.700;8.846;2024-03-23T02:38:12;31.97;;;11.37;;
50585;SDS011;36542;51.700;8.846;2024-03-23T02:40:37;33.43;;;11.53;;
50585;SDS011;36542;51.700;8.846;2024-03-23T02:43:03;30.17;;;11.53;;
50585;SDS011;36542;51.700;8.846;2024-03-23T02:45:29;33.60;;;12.33;;
50585;SDS011;36542;51.700;8.846;2024-03-23T02:47:55;31.73;;;11.07;;
50585;SDS011;36542;51.700;8.846;2024-03-23T02:50:21;32.90;;;12.57;;
50585;SDS011;36542;51.700;8.846;2024-03-23T02:52:47;33.20;;;12.60;;
50585;SDS011;36542;51.700;8.846;2024-03-23T02:55:13;28.50;;;11.77;;
50585;SDS011;36542;51.700;8.846;2024-03-23T02:57:40;37.57;;;12.63;;
50585;SDS011;36542;51.700;8.846;2024-03-23T03:00:06;37.20;;;12.33;;
50585;SDS011;36542;51.700;8.846;2024-03-23T03:02:32;38.03;;;12.03;;
50585;SDS011;36542;51.700;8.846;2024-03-23T03:04:58;36.07;;;11.33;;
50585;SDS011;36542;51.700;8.846;2024-03-23T03:07:24;27.47;;;10.33;;
50585;SDS011;36542;51.700;8.846;2024-03-23T03:09:49;27.53;;;9.97;;
50585;SDS011;36542;51.700;8.846;2024-03-23T03:12:15;23.37;;;9.07;;
50585;SDS011;36542;51.700;8.846;2024-03-23T03:14:41;24.57;;;8.87;;
50585;SDS011;36542;51.700;8.846;2024-03-23T03:17:06;28.57;;;8.87;;
50585;SDS011;36542;51.700;8.846;2024-03-23T03:19:32;20.33;;;6.97;;
50585;SDS011;36542;51.700;8.846;2024-03-23T03:21:58;18.17;;;6.10;;
50585;SDS011;36542;51.700;8.846;2024-03-23T03:24:24;17.03;;;5.47;;
50585;SDS011;36542;51.700;8.846;2024-03-23T03:26:49;20.80;;;6.30;;
50585;SDS011;36542;51.700;8.846;2024-03-23T03:29:15;13.37;;;5.33;;
50585;SDS011;36542;51.700;8.846;2024-03-23T03:31:41;11.20;;;4.73;;
50585;SDS011;36542;51.700;8.846;2024-03-23T03:34:07;15.43;;;4.63;;
50585;SDS011;36542;51.700;8.846;2024-03-23T03:36:33;12.33;;;5.63;;
50585;SDS011;36542;51.700;8.846;2024-03-23T03:38:59;10.77;;;4.60;;
50585;SDS011;36542;51.700;8.846;2024-03-23T03:41:24;17.00;;;5.13;;
50585;SDS011;36542;51.700;8.846;2024-03-23T03:43:50;8.30;;;3.53;;
50585;SDS011;36542;51.700;8.846;2024-03-23T03:46:16;9.73;;;3.70;;
50585;SDS011;36542;51.700;8.846;2024-03-23T03:48:42;12.80;;;4.60;;
50585;SDS011;36542;51.700;8.846;2024-03-23T03:51:09;10.97;;;4.57;;
50585;SDS011;36542;51.700;8.846;2024-03-23T03:53:35;8.43;;;4.30;;
50585;SDS011;36542;51.700;8.846;2024-03-23T03:56:01;7.67;;;4.40;;
50585;SDS011;36542;51.700;8.846;2024-03-23T03:58:27;14.07;;;4.97;;
50585;SDS011;36542;51.700;8.846;2024-03-23T04:00:53;13.17;;;4.70;;
50585;SDS011;36542;51.700;8.846;2024-03-23T04:03:19;10.20;;;3.97;;
50585;SDS011;36542;51.700;8.846;2024-03-23T04:05:49;16.07;;;4.17;;
50585;SDS011;36542;51.700;8.846;2024-03-23T04:08:16;9.67;;;5.07;;
50585;SDS011;36542;51.700;8.846;2024-03-23T04:10:42;15.63;;;5.10;;
50585;SDS011;36542;51.700;8.846;2024-03-23T04:13:07;13.83;;;5.33;;
50585;SDS011;36542;51.700;8.846;2024-03-23T04:15:33;11.27;;;4.40;;
50585;SDS011;36542;51.700;8.846;2024-03-23T04:17:58;14.37;;;4.27;;
50585;SDS011;36542;51.700;8.846;2024-03-23T04:20:24;14.33;;;4.77;;
50585;SDS011;36542;51.700;8.846;2024-03-23T04:22:51;16.57;;;5.03;;
50585;SDS011;36542;51.700;8.846;2024-03-23T04:25:16;15.37;;;4.77;;
50585;SDS011;36542;51.700;8.846;2024-03-23T04:27:44;11.00;;;4.13;;
50585;SDS011;36542;51.700;8.846;2024-03-23T04:30:10;11.97;;;3.97;;
50585;SDS011;36542;51.700;8.846;2024-03-23T04:32:39;12.73;;;3.87;;
50585;SDS011;36542;51.700;8.846;2024-03-23T04:35:05;10.50;;;3.37;;
50585;SDS011;36542;51.700;8.846;2024-03-23T04:37:32;14.90;;;4.53;;
50585;SDS011;36542;51.700;8.846;2024-03-23T04:39:59;8.57;;;3.80;;
50585;SDS011;36542;51.700;8.846;2024-03-23T04:42:26;12.47;;;3.40;;
50585;SDS011;36542;51.700;8.846;2024-03-23T04:44:52;12.83;;;3.83;;
50585;SDS011;36542;51.700;8.846;2024-03-23T04:47:18;13.67;;;3.80;;
50585;SDS011;36542;51.700;8.846;2024-03-23T04:49:44;8.97;;;4.20;;
50585;SDS011;36542;51.700;8.846;2024-03-23T04:52:09;8.10;;;3.10;;
50585;SDS011;36542;51.700;8.846;2024-03-23T04:54:35;13.83;;;3.63;;
50585;SDS011;36542;51.700;8.846;2024-03-23T04:57:00;11.70;;;4.77;;
50585;SDS011;36542;51.700;8.846;2024-03-23T04:59:26;10.40;;;3.30;;
50585;SDS011;36542;51.700;8.846;2024-03-23T05:01:52;13.50;;;3.17;;
50585;SDS011;36542;51.700;8.846;2024-03-23T05:04:17;10.43;;;3.33;;
50585;SDS011;36542;51.700;8.846;2024-03-23T05:06:43;11.40;;;3.77;;
50585;SDS011;36542;51.700;8.846;2024-03-23T05:09:08;11.80;;;3.87;;
50585;SDS011;36542;51.700;8.846;2024-03-23T05:11:40;7.53;;;4.10;;
50585;SDS011;36542;51.700;8.846;2024-03-23T05:14:10;8.23;;;3.83;;
50585;SDS011;36542;51.700;8.846;2024-03-23T05:16:38;8.03;;;3.57;;
50585;SDS011;36542;51.700;8.846;2024-03-23T05:19:03;8.70;;;4.00;;
50585;SDS011;36542;51.700;8.846;2024-03-23T05:21:29;6.00;;;3.57;;
50585;SDS011;36542;51.700;8.846;2024-03-23T05:23:54;13.07;;;4.10;;
50585;SDS011;36542;51.700;8.846;2024-03-23T05:26:22;16.00;;;4.70;;
50585;SDS011;36542;51.700;8.846;2024-03-23T05:28:48;11.90;;;4.57;;
50585;SDS011;36542;51.700;8.846;2024-03-23T05:31:23;13.17;;;3.30;;
50585;SDS011;36542;51.700;8.846;2024-03-23T05:33:53;7.57;;;3.17;;
50585;SDS011;36542;51.700;8.846;2024-03-23T05:36:19;12.73;;;4.80;;
50585;SDS011;36542;51.700;8.846;2024-03-23T05:38:45;10.47;;;3.90;;
50585;SDS011;36542;51.700;8.846;2024-03-23T05:41:11;13.03;;;4.00;;
50585;SDS011;36542;51.700;8.846;2024-03-23T05:43:36;19.20;;;5.27;;
50585;SDS011;36542;51.700;8.846;2024-03-23T05:46:02;16.43;;;4.27;;
50585;SDS011;36542;51.700;8.846;2024-03-23T05:48:29;14.00;;;3.87;;
50585;SDS011;36542;51.700;8.846;2024-03-23T05:50:55;6.87;;;3.23;;
50585;SDS011;36542;51.700;8.846;2024-03-23T05:53:21;12.30;;;4.30;;
50585;SDS011;36542;51.700;8.846;2024-03-23T05:55:46;12.03;;;3.57;;
50585;SDS011;36542;51.700;8.846;2024-03-23T05:58:15;13.70;;;3.80;;
50585;SDS011;36542;51.700;8.846;2024-03-23T06:00:42;8.77;;;3.30;;
50585;SDS011;36542;51.700;8.846;2024-03-23T06:03:08;7.60;;;2.90;;
50585;SDS011;36542;51.700;8.846;2024-03-23T06:05:35;10.07;;;3.40;;
50585;SDS011;36542;51.700;8.846;2024-03-23T06:08:01;17.67;;;4.17;;
50585;SDS011;36542;51.700;8.846;2024-03-23T06:10:27;8.77;;;3.37;;
50585;SDS011;36542;51.700;8.846;2024-03-23T06:12:53;8.67;;;3.47;;
50585;SDS011;36542;51.700;8.846;2024-03-23T06:15:19;9.57;;;3.50;;
50585;SDS011;36542;51.700;8.846;2024-03-23T06:17:45;10.60;;;2.90;;
50585;SDS011;36542;51.700;8.846;2024-03-23T06:20:11;15.20;;;4.17;;
50585;SDS011;36542;51.700;8.846;2024-03-23T06:22:38;12.93;;;3.50;;
50585;SDS011;36542;51.700;8.846;2024-03-23T06:27:34;16.53;;;4.00;;
50585;SDS011;36542;51.700;8.846;2024-03-23T06:30:00;16.77;;;3.77;;
50585;SDS011;36542;51.700;8.846;2024-03-23T06:32:27;8.67;;;2.93;;
50585;SDS011;36542;51.700;8.846;2024-03-23T06:34:54;12.97;;;3.23;;
